Time;durP1;ratioP1;P1;durP2;ratioP2;P2;SDS_P1;SDS_P2;PMS_P1;PMS_P2;Temp;Humidity;BMP_temperature;BMP_pressure;BME280_temperature;BME280_humidity;BME280_pressure;Samples;Min_cycle;Max_cycle;Signal;HPM_P1;HPM_P2
2023/06/11 00:01:19;;;;;;;;;18.33;18.33;;;;;-147.17;100.00;-9965.91;5052574;28;51412;-58
2023/06/11 00:03:46;;;;;;;;;19.67;19.67;;;;;-147.17;100.00;-10462.09;5052041;28;51146;-58
2023/06/11 00:06:17;;;;;;;;;18.50;18.50;;;;;-147.17;100.00;-10958.19;5052961;28;51123;-58
2023/06/11 00:08:43;;;;;;;;;19.67;19.33;;;;;-147.17;100.00;-11950.22;5048397;28;51023;-58
2023/06/11 00:11:08;;;;;;;;;19.00;18.25;;;;;-147.17;100.00;-12694.06;5046613;28;51038;-58
2023/06/11 00:13:33;;;;;;;;;23.00;21.50;;;;;-147.17;100.00;-13437.75;5049246;28;60842;-57
2023/06/11 00:15:59;;;;;;;;;29.50;28.50;;;;;-147.17;100.00;-13933.50;5065808;28;51182;-57
2023/06/11 00:18:25;;;;;;;;;25.50;24.25;;;;;-147.17;100.00;-14181.31;5053129;28;50957;-57
2023/06/11 00:20:51;;;;;;;;;27.50;26.75;;;;;-147.17;100.00;-15172.50;5049276;28;51277;-58
2023/06/11 00:23:17;;;;;;;;;27.25;26.00;;;;;-147.17;100.00;-15420.25;5037095;28;51648;-57
2023/06/11 00:25:42;;;;;;;;;31.50;30.00;;;;;-147.17;100.00;-15668.00;5048324;28;51152;-58
2023/06/11 00:28:08;;;;;;;;;27.25;26.50;;;;;-147.17;100.00;-15668.00;5036756;28;51343;-58
2023/06/11 00:30:33;;;;;;;;;29.75;28.50;;;;;-147.17;100.00;-15915.72;5038837;28;51111;-58
2023/06/11 00:33:00;;;;;;;;;31.50;30.50;;;;;-147.17;100.00;-15917.19;5051730;28;58322;-58
2023/06/11 00:35:26;;;;;;;;;32.50;29.75;;;;;-147.17;100.00;-15917.19;5052424;28;50996;-57
2023/06/11 00:37:52;;;;;;;;;35.50;32.50;;;;;-147.17;100.00;-15917.19;5052831;28;51284;-58
2023/06/11 00:40:17;;;;;;;;;29.50;29.00;;;;;-147.17;100.00;-15917.19;5054223;28;51239;-57
2023/06/11 00:42:45;;;;;;;;;33.50;31.75;;;;;-147.17;100.00;-15917.19;5040675;28;51780;-58
2023/06/11 00:45:11;;;;;;;;;32.50;30.25;;;;;-147.17;100.00;-15917.19;5038109;28;51052;-57
2023/06/11 00:47:38;;;;;;;;;30.75;30.25;;;;;-147.17;100.00;-15917.19;5046425;28;50991;-58
2023/06/11 00:50:04;;;;;;;;;32.25;31.25;;;;;-147.17;100.00;-15917.19;5042701;28;51209;-58
2023/06/11 00:52:30;;;;;;;;;30.25;30.00;;;;;-147.17;100.00;-15917.19;5051578;28;51110;-58
2023/06/11 00:54:56;;;;;;;;;28.00;28.00;;;;;-147.17;100.00;-15917.19;5041323;28;56751;-57
2023/06/11 00:57:24;;;;;;;;;29.00;29.00;;;;;-147.17;100.00;-15917.19;5049182;28;50949;-57
2023/06/11 00:59:53;;;;;;;;;32.50;30.50;;;;;-147.17;100.00;-15917.19;5051604;28;51423;-57
2023/06/11 01:02:24;;;;;;;;;31.50;30.00;;;;;-147.17;100.00;-15917.19;5046246;28;52248;-58
2023/06/11 01:04:57;;;;;;;;;30.50;29.75;;;;;-147.17;100.00;-15917.19;5053785;28;50961;-57
2023/06/11 01:07:26;;;;;;;;;30.50;29.25;;;;;-147.17;100.00;-15917.19;5051775;28;51179;-57
2023/06/11 01:09:52;;;;;;;;;31.50;28.50;;;;;-147.17;100.00;-15917.19;5052073;28;51372;-58
2023/06/11 01:12:18;;;;;;;;;32.00;30.50;;;;;-147.17;100.00;-15917.19;5052006;28;51738;-58
2023/06/11 01:14:43;;;;;;;;;28.50;27.00;;;;;-147.17;100.00;-15917.19;5051304;28;51147;-56
2023/06/11 01:17:15;;;;;;;;;32.25;30.00;;;;;-147.17;100.00;-15917.19;5051308;28;51411;-57
2023/06/11 01:20:25;;;;;;;;;27.50;26.50;;;;;-147.17;100.00;-15917.19;5050334;28;50897;-57
2023/06/11 01:23:06;;;;;;;;;27.75;26.00;;;;;-147.17;100.00;-15917.19;4982586;28;53735;-57
2023/06/11 01:25:50;;;;;;;;;25.25;24.25;;;;;-147.17;100.00;-15917.19;5045506;28;50953;-57
2023/06/11 01:28:21;;;;;;;;;26.75;24.75;;;;;-147.17;100.00;-15917.19;5051214;28;51015;-59
2023/06/11 01:30:51;;;;;;;;;25.75;22.75;;;;;-147.17;100.00;-15917.19;5052662;28;50986;-58
2023/06/11 01:33:18;;;;;;;;;26.75;26.25;;;;;-147.17;100.00;-15917.19;5053129;28;51984;-57
2023/06/11 01:35:45;;;;;;;;;24.75;23.25;;;;;-147.17;100.00;-15917.19;5050550;28;51105;-57
2023/06/11 01:38:10;;;;;;;;;29.75;28.50;;;;;-147.17;100.00;-15917.19;5040178;28;51173;-59
2023/06/11 01:40:35;;;;;;;;;20.00;19.67;;;;;-147.17;100.00;-15917.19;5050985;28;51151;-58
2023/06/11 01:43:02;;;;;;;;;15.00;13.00;;;;;-147.17;100.00;-15917.19;5051502;28;51726;-58
2023/06/11 01:45:28;;;;;;;;;13.67;13.00;;;;;-147.17;100.00;-15917.19;5051323;28;51486;-58
2023/06/11 01:47:53;;;;;;;;;15.67;14.33;;;;;-147.17;100.00;-15917.19;5042693;28;51241;-58
2023/06/11 01:50:20;;;;;;;;;14.33;14.33;;;;;-147.17;100.00;-15917.19;5051300;28;51397;-58
2023/06/11 01:52:46;;;;;;;;;12.33;12.33;;;;;-147.17;100.00;-15917.19;5051268;28;52004;-58
2023/06/11 01:55:12;;;;;;;;;12.00;11.67;;;;;-147.17;100.00;-15917.19;5041783;28;50903;-58
2023/06/11 01:57:37;;;;;;;;;13.67;13.33;;;;;-147.17;100.00;-15917.19;5048435;28;50933;-58
2023/06/11 02:00:10;;;;;;;;;10.33;10.33;;;;;-147.17;100.00;-15917.19;5041935;28;51213;-58
2023/06/11 02:02:38;;;;;;;;;11.00;11.00;;;;;-147.17;100.00;-15917.19;5052987;28;51634;-58
2023/06/11 02:05:05;;;;;;;;;9.00;9.00;;;;;-147.17;100.00;-15917.19;5052813;28;51102;-58
2023/06/11 02:07:30;;;;;;;;;9.00;8.33;;;;;-147.17;100.00;-15917.19;5051318;28;50957;-58
2023/06/11 02:09:55;;;;;;;;;9.00;9.00;;;;;-147.17;100.00;-15917.19;5049325;28;51473;-58
2023/06/11 02:12:21;;;;;;;;;11.00;11.00;;;;;-147.17;100.00;-15917.19;5040907;28;52920;-58
2023/06/11 02:14:46;;;;;;;;;10.00;10.00;;;;;-147.17;100.00;-15917.19;5047880;28;51025;-58
2023/06/11 02:17:11;;;;;;;;;12.33;12.33;;;;;-147.17;100.00;-15917.19;5050852;28;51019;-58
2023/06/11 02:19:37;;;;;;;;;12.00;12.00;;;;;-147.17;100.00;-15917.19;5051193;28;51386;-58
2023/06/11 02:22:02;;;;;;;;;10.00;10.00;;;;;-147.17;100.00;-15917.19;5051996;28;52153;-58
2023/06/11 02:24:27;;;;;;;;;13.00;12.33;;;;;-147.17;100.00;-15917.19;5046363;28;51040;-58
2023/06/11 02:26:53;;;;;;;;;13.00;12.00;;;;;-147.17;100.00;-15917.19;5041964;28;51107;-59
2023/06/11 02:29:18;;;;;;;;;13.33;13.00;;;;;-147.17;100.00;-15917.19;5049812;28;51083;-58
2023/06/11 02:31:43;;;;;;;;;10.67;10.67;;;;;-147.17;100.00;-15917.19;5050586;28;50886;-58
2023/06/11 02:34:09;;;;;;;;;14.00;14.00;;;;;-147.17;100.00;-15917.19;5050986;28;50990;-58
2023/06/11 02:36:35;;;;;;;;;15.00;15.00;;;;;-147.17;100.00;-15917.19;5051506;28;51246;-58
2023/06/11 02:39:00;;;;;;;;;16.33;15.33;;;;;-147.17;100.00;-15917.19;5050781;28;50882;-58
2023/06/11 02:41:26;;;;;;;;;16.33;16.00;;;;;-147.17;100.00;-15917.19;5040897;28;51103;-58
2023/06/11 02:43:52;;;;;;;;;17.33;16.00;;;;;-147.17;100.00;-15917.19;5050523;28;50949;-58
2023/06/11 02:46:17;;;;;;;;;21.33;20.00;;;;;-147.17;100.00;-15917.19;5046922;28;51199;-58
2023/06/11 02:48:43;;;;;;;;;26.00;25.50;;;;;-147.17;100.00;-15917.19;5048679;28;51076;-58
2023/06/11 02:51:08;;;;;;;;;28.00;26.25;;;;;-147.17;100.00;-15917.19;5051742;28;51824;-58
2023/06/11 02:53:34;;;;;;;;;24.75;24.75;;;;;-147.17;100.00;-15917.19;5051342;28;56131;-58
2023/06/11 02:55:59;;;;;;;;;24.50;24.00;;;;;-147.17;100.00;-15917.19;5050367;28;51201;-58
2023/06/11 02:58:24;;;;;;;;;30.25;28.50;;;;;-147.17;100.00;-15917.19;5049000;28;51130;-58
2023/06/11 03:00:50;;;;;;;;;28.50;28.25;;;;;-147.17;100.00;-15917.19;5054750;28;51217;-58
2023/06/11 03:03:15;;;;;;;;;29.50;28.50;;;;;-147.17;100.00;-15917.19;5054896;28;51016;-58
2023/06/11 03:05:40;;;;;;;;;29.00;29.00;;;;;-147.17;100.00;-15917.19;5055326;28;59477;-58
2023/06/11 03:08:06;;;;;;;;;30.00;29.25;;;;;-147.17;100.00;-15917.19;5051999;28;51135;-58
2023/06/11 03:10:31;;;;;;;;;28.00;27.50;;;;;-147.17;100.00;-15917.19;5040042;28;52052;-58
2023/06/11 03:12:56;;;;;;;;;26.75;25.75;;;;;-147.17;100.00;-15917.19;5048294;28;54248;-58
2023/06/11 03:15:22;;;;;;;;;26.00;25.25;;;;;-147.17;100.00;-15917.19;5044395;28;51057;-58
2023/06/11 03:17:47;;;;;;;;;25.75;25.50;;;;;-147.17;100.00;-15917.19;5055242;28;51028;-58
2023/06/11 03:20:13;;;;;;;;;28.00;27.00;;;;;-147.17;100.00;-15917.19;5053742;28;51081;-58
2023/06/11 03:22:38;;;;;;;;;27.25;26.75;;;;;-147.17;100.00;-15917.19;5053131;28;51052;-58
2023/06/11 03:25:04;;;;;;;;;32.00;29.00;;;;;-147.17;100.00;-15917.19;5048679;28;51061;-58
2023/06/11 03:27:30;;;;;;;;;27.25;26.25;;;;;-147.17;100.00;-15917.19;5053996;28;51277;-59
2023/06/11 03:29:55;;;;;;;;;30.25;27.50;;;;;-147.17;100.00;-15917.19;5052681;28;51791;-58
2023/06/11 03:32:21;;;;;;;;;26.75;26.50;;;;;-147.17;100.00;-15917.19;5051153;28;50996;-58
2023/06/11 03:34:46;;;;;;;;;25.00;24.50;;;;;-147.17;100.00;-15917.19;5068041;27;51130;-58
2023/06/11 03:37:12;;;;;;;;;14.25;12.00;;;;;-147.17;100.00;-15917.19;5054538;28;51279;-58
2023/06/11 03:39:37;;;;;;;;;30.50;29.25;;;;;-147.17;100.00;-15917.19;5052139;28;58768;-58
2023/06/11 03:42:02;;;;;;;;;25.75;25.00;;;;;-147.17;100.00;-15917.19;5054290;28;51471;-58
2023/06/11 03:44:28;;;;;;;;;25.00;24.75;;;;;-147.17;100.00;-15917.19;5053260;28;51087;-58
2023/06/11 03:46:53;;;;;;;;;25.75;23.75;;;;;-147.17;100.00;-15917.19;5043152;28;51183;-60
2023/06/11 03:49:19;;;;;;;;;29.00;26.75;;;;;-147.17;100.00;-15917.19;5048024;28;50997;-58
2023/06/11 03:51:44;;;;;;;;;27.75;27.00;;;;;-147.17;100.00;-15917.19;5052585;28;51140;-58
2023/06/11 03:54:09;;;;;;;;;26.75;25.75;;;;;-147.17;100.00;-15917.19;5054132;28;51214;-58
2023/06/11 03:56:34;;;;;;;;;27.50;27.00;;;;;-147.17;100.00;-15917.19;5053152;28;51378;-58
2023/06/11 03:59:00;;;;;;;;;25.50;25.00;;;;;-147.17;100.00;-15917.19;5053242;28;51776;-58
2023/06/11 04:01:25;;;;;;;;;28.50;28.25;;;;;-147.17;100.00;-15917.19;5047369;28;54965;-58
2023/06/11 04:03:51;;;;;;;;;27.75;26.75;;;;;-147.17;100.00;-15917.19;5040664;28;51245;-58
2023/06/11 04:06:17;;;;;;;;;29.50;28.50;;;;;-147.17;100.00;-15917.19;5050191;28;51314;-58
2023/06/11 04:08:43;;;;;;;;;30.00;29.50;;;;;-147.17;100.00;-15917.19;5049051;28;52423;-58
2023/06/11 04:11:08;;;;;;;;;32.50;31.00;;;;;-147.17;100.00;-15917.19;5054497;28;50969;-58
2023/06/11 04:13:34;;;;;;;;;32.25;29.75;;;;;-147.17;100.00;-15917.19;5052694;28;51096;-58
2023/06/11 04:15:59;;;;;;;;;29.25;29.00;;;;;-147.17;100.00;-15917.19;5047781;28;51258;-58
2023/06/11 04:18:26;;;;;;;;;31.75;30.00;;;;;-147.17;100.00;-15917.19;5053507;28;50984;-58
2023/06/11 04:20:51;;;;;;;;;28.25;27.50;;;;;-147.17;100.00;-15917.19;5049082;28;51149;-58
2023/06/11 04:23:17;;;;;;;;;33.25;31.25;;;;;-147.17;100.00;-15917.19;5036131;28;51367;-58
2023/06/11 04:25:43;;;;;;;;;33.25;30.25;;;;;-147.17;100.00;-15917.19;5052032;28;50992;-58
2023/06/11 04:28:09;;;;;;;;;31.25;30.25;;;;;-147.17;100.00;-15917.19;5052945;28;52112;-58
2023/06/11 04:30:34;;;;;;;;;30.50;29.25;;;;;-147.17;100.00;-15917.19;5054465;28;51654;-58
2023/06/11 04:33:03;;;;;;;;;29.25;28.25;;;;;-147.17;100.00;-15917.19;5050548;28;51232;-58
2023/06/11 04:35:29;;;;;;;;;29.25;29.25;;;;;-147.17;100.00;-15917.19;5053225;28;51332;-58
2023/06/11 04:37:55;;;;;;;;;27.75;26.75;;;;;-147.17;100.00;-15917.19;5044917;28;52668;-58
2023/06/11 04:40:23;;;;;;;;;25.50;25.50;;;;;-147.17;100.00;-15917.19;5053978;28;51149;-58
2023/06/11 04:42:49;;;;;;;;;30.75;28.75;;;;;-147.17;100.00;-15917.19;5053236;28;51170;-58
2023/06/11 04:45:18;;;;;;;;;22.75;22.50;;;;;-147.17;100.00;-15917.19;5052154;28;51236;-58
2023/06/11 04:47:45;;;;;;;;;25.00;23.25;;;;;-147.17;100.00;-15917.19;5052414;28;52872;-58
2023/06/11 04:50:11;;;;;;;;;23.50;23.25;;;;;-147.17;100.00;-15917.19;5053113;28;51100;-58
2023/06/11 04:52:42;;;;;;;;;20.75;20.75;;;;;-147.17;100.00;-15917.19;5052369;28;51188;-58
2023/06/11 04:55:09;;;;;;;;;26.50;25.75;;;;;-147.17;100.00;-15917.19;5058755;28;51227;-58
2023/06/11 04:57:36;;;;;;;;;26.75;25.25;;;;;-147.17;100.00;-15917.19;5054029;28;53215;-58
2023/06/11 05:00:06;;;;;;;;;29.00;27.25;;;;;-147.17;100.00;-15917.19;5051184;28;52758;-58
2023/06/11 05:02:32;;;;;;;;;26.25;24.00;;;;;-147.17;100.00;-15917.19;5052838;28;51066;-58
2023/06/11 05:04:57;;;;;;;;;23.00;22.25;;;;;-147.17;100.00;-15917.19;5047393;28;52135;-58
2023/06/11 05:07:23;;;;;;;;;24.75;23.25;;;;;-147.17;100.00;-15917.19;5052220;28;66308;-58
2023/06/11 05:09:48;;;;;;;;;24.25;23.75;;;;;-147.17;100.00;-15917.19;5041658;28;50971;-58
2023/06/11 05:12:13;;;;;;;;;28.50;25.50;;;;;-147.17;100.00;-15917.19;5051893;28;51532;-58
2023/06/11 05:14:39;;;;;;;;;27.75;27.75;;;;;-147.17;100.00;-15917.19;5050764;28;51210;-58
2023/06/11 05:17:04;;;;;;;;;26.00;25.00;;;;;-147.17;100.00;-15917.19;5051778;28;51740;-58
2023/06/11 05:19:30;;;;;;;;;29.50;29.50;;;;;-147.17;100.00;-15917.19;5053247;28;50942;-58
2023/06/11 05:21:55;;;;;;;;;29.50;28.75;;;;;-147.17;100.00;-15917.19;5039775;28;51340;-58
2023/06/11 05:24:21;;;;;;;;;29.25;28.50;;;;;-147.17;100.00;-15917.19;5034594;28;53252;-58
2023/06/11 05:26:46;;;;;;;;;29.00;28.00;;;;;-147.17;100.00;-15917.19;5034535;28;52836;-58
2023/06/11 05:29:12;;;;;;;;;25.50;25.00;;;;;-147.17;100.00;-15917.19;5034587;28;53231;-58
2023/06/11 05:31:38;;;;;;;;;29.50;28.25;;;;;-147.17;100.00;-15917.19;5035177;28;51233;-58
2023/06/11 05:34:04;;;;;;;;;32.25;31.00;;;;;-147.17;100.00;-15917.19;5037042;28;51443;-58
2023/06/11 05:36:29;;;;;;;;;29.75;28.75;;;;;-147.17;100.00;-15917.19;5031232;28;53852;-58
2023/06/11 05:38:55;;;;;;;;;27.50;26.50;;;;;-147.17;100.00;-15917.19;5032192;28;51661;-58
2023/06/11 05:41:21;;;;;;;;;34.50;30.25;;;;;-147.17;100.00;-15917.19;5034622;28;52840;-58
2023/06/11 05:43:47;;;;;;;;;31.00;29.50;;;;;-147.17;100.00;-15917.19;5032982;28;51372;-58
2023/06/11 05:46:13;;;;;;;;;28.00;28.00;;;;;-147.17;100.00;-15917.19;5032891;28;52976;-58
2023/06/11 05:48:39;;;;;;;;;29.00;27.50;;;;;-147.17;100.00;-15917.19;5032695;28;51265;-58
2023/06/11 05:51:05;;;;;;;;;31.50;30.00;;;;;-147.17;100.00;-15917.19;5032916;28;51371;-58
2023/06/11 05:53:30;;;;;;;;;32.50;30.00;;;;;-147.17;100.00;-15917.19;5032264;28;52720;-58
2023/06/11 05:55:56;;;;;;;;;29.50;29.25;;;;;-147.17;100.00;-15917.19;5031502;28;57211;-58
2023/06/11 05:58:22;;;;;;;;;34.50;32.00;;;;;-147.17;100.00;-15917.19;5030468;28;51812;-58
2023/06/11 06:00:47;;;;;;;;;30.00;29.50;;;;;-147.17;100.00;-15917.19;5033760;28;51250;-58
2023/06/11 06:03:13;;;;;;;;;34.25;32.25;;;;;-147.17;100.00;-15917.19;5035426;28;51732;-58
2023/06/11 06:05:38;;;;;;;;;29.50;29.00;;;;;-147.17;100.00;-15917.19;5032674;28;53122;-58
2023/06/11 06:08:03;;;;;;;;;31.50;30.25;;;;;-147.17;100.00;-15917.19;5032299;28;51231;-58
2023/06/11 06:10:29;;;;;;;;;30.25;29.75;;;;;-147.17;100.00;-15917.19;5031128;28;51351;-58
2023/06/11 06:12:54;;;;;;;;;29.25;29.00;;;;;-147.17;100.00;-15917.19;5034530;28;52233;-59
2023/06/11 06:15:19;;;;;;;;;29.25;28.75;;;;;-147.17;100.00;-15917.19;5032942;28;53711;-58
2023/06/11 06:17:45;;;;;;;;;31.00;28.75;;;;;-147.17;100.00;-15917.19;5032500;28;51238;-58
2023/06/11 06:20:11;;;;;;;;;26.75;25.75;;;;;-147.17;100.00;-15917.19;5029542;28;51651;-58
2023/06/11 06:22:38;;;;;;;;;26.75;26.00;;;;;-147.17;100.00;-15917.19;5034377;28;51857;-58
2023/06/11 06:25:04;;;;;;;;;27.25;26.75;;;;;-147.17;100.00;-15917.19;5032155;28;52628;-58
2023/06/11 06:27:30;;;;;;;;;24.50;24.25;;;;;-147.17;100.00;-15917.19;5033475;28;51303;-58
2023/06/11 06:29:55;;;;;;;;;27.25;26.75;;;;;-147.17;100.00;-15917.19;5030812;28;51457;-58
2023/06/11 06:32:21;;;;;;;;;28.25;28.25;;;;;-147.17;100.00;-15917.19;5033417;28;51546;-58
2023/06/11 06:34:46;;;;;;;;;28.00;25.75;;;;;-147.17;100.00;-15917.19;5031160;28;52027;-58
2023/06/11 06:37:11;;;;;;;;;22.33;22.33;;;;;-147.17;100.00;-15917.19;5031115;28;51251;-58
2023/06/11 06:39:37;;;;;;;;;20.00;20.00;;;;;-147.17;100.00;-15917.19;5028419;28;52822;-57
2023/06/11 06:42:02;;;;;;;;;25.00;24.75;;;;;-147.17;100.00;-15917.19;5035748;28;51237;-57
2023/06/11 06:44:28;;;;;;;;;23.25;22.00;;;;;-147.17;100.00;-15917.19;5031187;28;52939;-57
2023/06/11 06:46:53;;;;;;;;;21.67;21.67;;;;;-147.17;100.00;-15917.19;5032210;28;56017;-56
2023/06/11 06:49:20;;;;;;;;;25.75;23.75;;;;;-147.17;100.00;-15917.19;5031387;28;51155;-58
2023/06/11 06:51:46;;;;;;;;;30.00;28.75;;;;;-147.17;100.00;-15917.19;5036562;28;52771;-57
2023/06/11 06:54:11;;;;;;;;;28.50;28.00;;;;;-147.17;100.00;-15917.19;5032093;28;53718;-57
2023/06/11 06:56:37;;;;;;;;;27.00;25.33;;;;;-147.17;100.00;-15917.19;5033206;28;52436;-57
2023/06/11 06:59:02;;;;;;;;;24.00;22.33;;;;;-147.17;100.00;-15917.19;5026922;28;51416;-58
2023/06/11 07:01:28;;;;;;;;;26.00;24.33;;;;;-147.17;100.00;-15917.19;5039210;28;51194;-57
2023/06/11 07:03:53;;;;;;;;;32.75;30.50;;;;;-147.17;100.00;-15917.19;5030428;28;52624;-58
2023/06/11 07:06:18;;;;;;;;;34.00;31.00;;;;;-147.17;100.00;-15917.19;5031917;28;51300;-57
2023/06/11 07:08:43;;;;;;;;;45.00;36.75;;;;;-147.17;100.00;-15917.19;5031297;28;51157;-57
2023/06/11 07:11:09;;;;;;;;;44.50;37.50;;;;;-147.17;100.00;-15917.19;5037426;28;51184;-57
2023/06/11 07:13:35;;;;;;;;;42.50;35.25;;;;;-147.17;100.00;-15917.19;5030829;28;66451;-58
2023/06/11 07:16:00;;;;;;;;;33.50;31.25;;;;;-147.17;100.00;-15917.19;5031763;28;51429;-59
2023/06/11 07:18:27;;;;;;;;;17.67;15.67;;;;;-147.17;100.00;-15917.19;5033162;28;53319;-57
2023/06/11 07:20:53;;;;;;;;;16.33;14.33;;;;;-147.17;100.00;-15917.19;5031039;28;52945;-59
2023/06/11 07:23:18;;;;;;;;;12.33;12.33;;;;;-147.17;100.00;-15917.19;5028905;28;52622;-59
2023/06/11 07:25:44;;;;;;;;;14.67;14.67;;;;;-147.17;100.00;-15917.19;5030659;28;52824;-59
2023/06/11 07:28:10;;;;;;;;;18.00;16.00;;;;;-147.17;100.00;-15668.00;5032152;28;51646;-59
2023/06/11 07:30:36;;;;;;;;;16.67;16.67;;;;;-147.17;100.00;-14924.75;5032838;28;51402;-59
2023/06/11 07:33:02;;;;;;;;;14.00;14.00;;;;;-147.17;100.00;-13933.50;5030298;28;52678;-59
2023/06/11 07:35:27;;;;;;;;;14.67;14.67;;;;;-147.17;100.00;-12694.06;5032479;28;51205;-59
2023/06/11 07:37:54;;;;;;;;;18.33;17.67;;;;;-147.17;100.00;-11702.25;5031686;28;51360;-59
2023/06/11 07:40:19;;;;;;;;;18.00;18.00;;;;;-147.17;100.00;-9469.69;5031034;28;51211;-59
2023/06/11 07:42:46;;;;;;;;;14.33;14.33;;;;;-147.17;100.00;-9221.53;5029439;28;52000;-59
2023/06/11 07:45:12;;;;;;;;;19.00;17.67;;;;;-147.17;100.00;-7235.84;5034117;28;52194;-59
2023/06/11 07:47:38;;;;;;;;;16.00;16.00;;;;;-147.17;100.00;-8228.81;5050465;28;51243;-57
2023/06/11 07:50:04;;;;;;;;;15.33;15.33;;;;;-147.17;100.00;-6739.25;5039042;28;52633;-58
2023/06/11 07:52:30;;;;;;;;;19.00;17.50;;;;;-147.17;100.00;-4752.25;5034461;28;52780;-59
2023/06/11 07:54:55;;;;;;;;;18.00;16.33;;;;;-147.17;100.00;-1521.19;5031935;28;51838;-59
2023/06/11 07:57:21;;;;;;;;;17.33;17.33;;;;;-147.17;100.00;468.50;5036722;28;53254;-58
2023/06/11 07:59:46;;;;;;;;;17.33;16.67;;;;;-147.17;100.00;-775.19;5034545;28;52594;-57
2023/06/11 08:02:12;;;;;;;;;16.67;16.67;;;;;-147.17;100.00;468.50;5035662;28;51962;-57
2023/06/11 08:04:38;;;;;;;;;18.00;18.00;;;;;-147.17;100.00;1712.56;5040274;28;52671;-59
2023/06/11 08:07:04;;;;;;;;;15.67;14.67;;;;;-147.17;100.00;2459.22;5052651;28;50977;-58
2023/06/11 08:09:32;;;;;;;;;16.67;16.67;;;;;-147.17;100.00;2210.31;5042589;28;51208;-59
2023/06/11 08:11:57;;;;;;;;;16.00;15.33;;;;;-147.17;100.00;2957.06;5047278;28;52452;-58
2023/06/11 08:14:23;;;;;;;;;15.67;15.67;;;;;-147.17;100.00;5198.13;5050887;28;51123;-58
2023/06/11 08:16:48;;;;;;;;;18.67;18.67;;;;;-147.17;100.00;4700.00;5051382;28;51195;-59
2023/06/11 08:19:14;;;;;;;;;15.33;15.33;;;;;-147.17;100.00;4450.97;5053374;28;51082;-59
2023/06/11 08:21:41;;;;;;;;;17.00;17.00;;;;;-147.17;100.00;5447.22;5052869;28;51116;-59
2023/06/11 08:24:06;;;;;;;;;16.67;16.67;;;;;-147.17;100.00;6194.59;5046356;28;51280;-59
2023/06/11 08:26:32;;;;;;;;;17.00;17.00;;;;;-147.17;100.00;7689.75;5052046;28;51152;-59
2023/06/11 08:28:57;;;;;;;;;18.00;16.67;;;;;-147.17;100.00;6443.75;5050669;28;51039;-59
2023/06/11 08:31:24;;;;;;;;;20.00;18.00;;;;;-147.17;100.00;8437.53;5043734;28;56253;-59
2023/06/11 08:33:50;;;;;;;;;19.33;17.00;;;;;-147.17;100.00;7689.75;5044241;28;50957;-59
2023/06/11 08:36:15;;;;;;;;;17.33;17.33;;;;;-147.17;100.00;7689.75;5047651;28;51052;-58
2023/06/11 08:38:40;;;;;;;;;17.33;17.33;;;;;-147.17;100.00;7191.28;5050781;28;51385;-59
2023/06/11 08:41:06;;;;;;;;;18.00;18.00;;;;;-147.17;100.00;6194.59;5042891;28;51074;-59
2023/06/11 08:43:32;;;;;;;;;16.67;16.67;;;;;-147.17;100.00;4700.00;5051007;28;51009;-59
2023/06/11 08:45:57;;;;;;;;;17.00;17.00;;;;;-147.17;100.00;4201.94;5040661;28;51261;-59
2023/06/11 08:48:24;;;;;;;;;19.67;17.67;;;;;-147.17;100.00;2210.31;5052313;28;51200;-59
2023/06/11 08:50:50;;;;;;;;;18.67;18.00;;;;;-147.17;100.00;1214.91;5050942;28;51100;-59
2023/06/11 08:53:16;;;;;;;;;16.00;16.00;;;;;-147.17;100.00;717.28;5052619;28;51105;-59
2023/06/11 08:55:41;;;;;;;;;16.67;16.67;;;;;-147.17;100.00;-277.75;5048399;28;51104;-60
2023/06/11 08:58:08;;;;;;;;;16.33;16.33;;;;;-147.17;100.00;-1023.88;5051126;28;51007;-58
2023/06/11 09:00:37;;;;;;;;;18.33;18.33;;;;;-147.17;100.00;-1272.53;5039192;28;52361;-58
2023/06/11 09:03:03;;;;;;;;;17.33;16.67;;;;;-147.17;100.00;-1521.19;5048979;28;51091;-59
2023/06/11 09:05:30;;;;;;;;;19.67;18.67;;;;;-147.17;100.00;-2018.47;5045237;28;51831;-58
2023/06/11 09:07:57;;;;;;;;;17.33;17.33;;;;;-147.17;100.00;-2018.47;5050654;28;51202;-57
2023/06/11 09:10:22;;;;;;;;;16.50;16.50;;;;;-147.17;100.00;-1769.84;5046505;28;51214;-60
2023/06/11 09:12:48;;;;;;;;;16.33;15.67;;;;;-147.17;100.00;-526.47;5050514;28;50986;-60
2023/06/11 09:15:14;;;;;;;;;17.33;17.33;;;;;-147.17;100.00;-29.03;5042544;28;51140;-60
2023/06/11 09:17:41;;;;;;;;;16.67;16.67;;;;;-147.17;100.00;219.72;5052651;28;50941;-60
2023/06/11 09:20:10;;;;;;;;;16.00;16.00;;;;;-147.17;100.00;-29.03;5039834;28;51939;-60
2023/06/11 09:22:36;;;;;;;;;14.67;14.67;;;;;-147.17;100.00;-775.19;5031891;28;51012;-60
2023/06/11 09:25:09;;;;;;;;;18.00;17.00;;;;;-147.17;100.00;1712.56;5033201;28;51078;-60
2023/06/11 09:27:38;;;;;;;;;18.33;18.00;;;;;-147.17;100.00;4450.97;5034293;28;51309;-60
2023/06/11 09:30:11;;;;;;;;;15.67;14.67;;;;;-147.17;100.00;4201.94;5049331;28;51985;-60
2023/06/11 09:32:38;;;;;;;;;16.67;16.67;;;;;-147.17;100.00;3952.94;5048336;28;51087;-60
2023/06/11 09:35:06;;;;;;;;;17.00;17.00;;;;;-147.17;100.00;3703.94;5051487;28;51082;-60
2023/06/11 09:37:38;;;;;;;;;18.67;18.67;;;;;-147.17;100.00;2459.22;5051984;28;51046;-59
2023/06/11 09:40:05;;;;;;;;;19.00;17.67;;;;;-147.17;100.00;1463.72;5037870;28;53138;-60
2023/06/11 09:42:34;;;;;;;;;16.50;16.50;;;;;-147.17;100.00;1712.56;5048105;28;51104;-59
2023/06/11 09:44:59;;;;;;;;;18.00;18.00;;;;;-147.17;100.00;2957.06;5032088;28;51185;-60
2023/06/11 09:47:27;;;;;;;;;21.25;21.25;;;;;-147.17;100.00;3206.00;5039110;28;51987;-60
2023/06/11 09:49:53;;;;;;;;;19.00;18.25;;;;;-147.17;100.00;5198.13;5037545;28;51937;-61
2023/06/11 09:52:19;;;;;;;;;21.75;21.25;;;;;-147.17;100.00;6443.75;5049586;28;50949;-61
2023/06/11 09:54:47;;;;;;;;;20.25;19.25;;;;;-147.17;100.00;6194.59;5048050;28;50980;-60
2023/06/11 09:57:14;;;;;;;;;22.00;22.00;;;;;-147.17;100.00;5945.44;5051380;28;51346;-60
2023/06/11 09:59:40;;;;;;;;;20.50;20.00;;;;;-147.17;100.00;4700.00;5037083;28;52470;-60
2023/06/11 10:02:07;;;;;;;;;23.50;23.25;;;;;-147.17;100.00;3206.00;5040025;28;51340;-62
2023/06/11 10:04:32;;;;;;;;;22.50;22.50;;;;;-147.17;100.00;2210.31;5034715;28;50938;-62
2023/06/11 10:06:59;;;;;;;;;26.00;24.75;;;;;-147.17;100.00;1463.72;5046218;28;51289;-62
2023/06/11 10:09:29;;;;;;;;;22.00;22.00;;;;;-147.17;100.00;1214.91;5044405;28;51073;-61
2023/06/11 10:11:55;;;;;;;;;23.75;22.75;;;;;-147.17;100.00;-775.19;5043568;28;51217;-63
2023/06/11 10:14:22;;;;;;;;;21.00;21.00;;;;;-147.17;100.00;1463.72;5037025;28;51025;-61
2023/06/11 10:16:53;;;;;;;;;26.50;25.75;;;;;-147.17;100.00;2708.13;5047179;28;51325;-62
2023/06/11 10:19:21;;;;;;;;;19.75;19.75;;;;;-147.17;100.00;2708.13;5043833;28;51305;-62
2023/06/11 10:21:51;;;;;;;;;21.75;21.25;;;;;-147.17;100.00;2210.31;5048372;28;51048;-61
2023/06/11 10:24:24;;;;;;;;;25.50;25.25;;;;;-147.17;100.00;1214.91;5045076;28;51009;-62
2023/06/11 10:27:17;;;;;;;;;23.50;22.75;;;;;-147.17;100.00;-29.03;5050641;28;50989;-62
2023/06/11 10:29:49;;;;;;;;;27.00;26.00;;;;;-147.17;100.00;-1023.88;5044285;28;52630;-61
2023/06/11 10:32:16;;;;;;;;;27.50;27.50;;;;;-147.17;100.00;-1521.19;5050303;28;51125;-62
2023/06/11 10:34:42;;;;;;;;;26.75;26.75;;;;;-147.17;100.00;-1521.19;5042611;28;51580;-61
2023/06/11 10:37:10;;;;;;;;;27.75;27.75;;;;;-147.17;100.00;-2515.66;5050513;28;51325;-61
2023/06/11 10:39:35;;;;;;;;;28.00;26.50;;;;;-147.17;100.00;-3758.38;5044838;28;51798;-61
2023/06/11 10:42:02;;;;;;;;;26.50;25.50;;;;;-147.17;100.00;-4255.34;5050503;28;51189;-61
2023/06/11 10:44:31;;;;;;;;;29.25;28.25;;;;;-147.17;100.00;-3261.34;5047714;28;51158;-62
2023/06/11 10:47:00;;;;;;;;;27.25;27.00;;;;;-147.17;100.00;-3758.38;5049745;28;51166;-62